sensor_id;sensor_type;location;lat;lon;timestamp;temperature;humidity
66568;DHT22;53422;49.296;6.900;2023-08-01T00:00:16;19.10;99.90
66568;DHT22;53422;49.296;6.900;2023-08-01T00:02:41;19.10;99.90
66568;DHT22;53422;49.296;6.900;2023-08-01T00:05:08;19.10;99.90
66568;DHT22;53422;49.296;6.900;2023-08-01T00:07:34;19.20;99.90
66568;DHT22;53422;49.296;6.900;2023-08-01T00:09:59;19.10;99.90
66568;DHT22;53422;49.296;6.900;2023-08-01T00:12:25;19.10;99.90
66568;DHT22;53422;49.296;6.900;2023-08-01T00:14:51;19.00;99.90
66568;DHT22;53422;49.296;6.900;2023-08-01T00:17:17;19.00;99.90
66568;DHT22;53422;49.296;6.900;2023-08-01T00:19:42;19.10;99.90
66568;DHT22;53422;49.296;6.900;2023-08-01T00:22:08;19.10;99.90
66568;DHT22;53422;49.296;6.900;2023-08-01T00:24:35;19.10;99.90
66568;DHT22;53422;49.296;6.900;2023-08-01T00:27:02;19.10;99.90
66568;DHT22;53422;49.296;6.900;2023-08-01T00:29:28;19.10;99.90
66568;DHT22;53422;49.296;6.900;2023-08-01T00:31:53;19.00;99.90
66568;DHT22;53422;49.296;6.900;2023-08-01T00:34:19;19.00;99.90
66568;DHT22;53422;49.296;6.900;2023-08-01T00:36:44;19.00;99.90
66568;DHT22;53422;49.296;6.900;2023-08-01T00:39:10;19.20;99.90
66568;DHT22;53422;49.296;6.900;2023-08-01T00:41:36;19.20;99.90
66568;DHT22;53422;49.296;6.900;2023-08-01T00:44:01;19.10;99.90
66568;DHT22;53422;49.296;6.900;2023-08-01T00:46:27;19.10;99.90
66568;DHT22;53422;49.296;6.900;2023-08-01T00:48:54;19.10;99.90
66568;DHT22;53422;49.296;6.900;2023-08-01T00:51:23;19.10;99.90
66568;DHT22;53422;49.296;6.900;2023-08-01T00:53:50;19.10;99.90
66568;DHT22;53422;49.296;6.900;2023-08-01T00:56:16;19.00;99.90
66568;DHT22;53422;49.296;6.900;2023-08-01T00:58:42;19.00;99.90
66568;DHT22;53422;49.296;6.900;2023-08-01T01:01:07;19.10;99.90
66568;DHT22;53422;49.296;6.900;2023-08-01T01:03:33;19.00;99.90
66568;DHT22;53422;49.296;6.900;2023-08-01T01:08:50;19.20;99.90
66568;DHT22;53422;49.296;6.900;2023-08-01T01:11:15;19.10;99.90
66568;DHT22;53422;49.296;6.900;2023-08-01T01:13:41;19.10;99.90
66568;DHT22;53422;49.296;6.900;2023-08-01T01:16:07;19.10;99.90
66568;DHT22;53422;49.296;6.900;2023-08-01T01:18:32;19.00;99.90
66568;DHT22;53422;49.296;6.900;2023-08-01T01:20:58;19.00;99.90
66568;DHT22;53422;49.296;6.900;2023-08-01T01:23:25;19.10;99.90
66568;DHT22;53422;49.296;6.900;2023-08-01T01:25:53;18.90;99.90
66568;DHT22;53422;49.296;6.900;2023-08-01T01:28:20;18.90;99.90
66568;DHT22;53422;49.296;6.900;2023-08-01T01:30:46;19.00;99.90
66568;DHT22;53422;49.296;6.900;2023-08-01T01:33:14;19.10;99.90
66568;DHT22;53422;49.296;6.900;2023-08-01T01:35:40;19.10;99.90
66568;DHT22;53422;49.296;6.900;2023-08-01T01:38:06;19.10;99.90
66568;DHT22;53422;49.296;6.900;2023-08-01T01:40:33;19.10;99.90
66568;DHT22;53422;49.296;6.900;2023-08-01T01:42:59;19.10;99.90
66568;DHT22;53422;49.296;6.900;2023-08-01T01:45:25;19.10;99.90
66568;DHT22;53422;49.296;6.900;2023-08-01T01:47:51;19.10;99.90
66568;DHT22;53422;49.296;6.900;2023-08-01T01:50:17;19.10;99.90
66568;DHT22;53422;49.296;6.900;2023-08-01T01:52:43;19.10;99.90
66568;DHT22;53422;49.296;6.900;2023-08-01T01:55:09;19.10;99.90
66568;DHT22;53422;49.296;6.900;2023-08-01T01:57:35;19.10;99.90
66568;DHT22;53422;49.296;6.900;2023-08-01T02:00:05;19.10;99.90
66568;DHT22;53422;49.296;6.900;2023-08-01T02:02:31;19.10;99.90
66568;DHT22;53422;49.296;6.900;2023-08-01T02:04:56;19.10;99.90
66568;DHT22;53422;49.296;6.900;2023-08-01T02:07:22;19.10;99.90
66568;DHT22;53422;49.296;6.900;2023-08-01T02:09:48;19.10;99.90
66568;DHT22;53422;49.296;6.900;2023-08-01T02:12:13;19.10;99.90
66568;DHT22;53422;49.296;6.900;2023-08-01T02:14:40;19.10;99.90
66568;DHT22;53422;49.296;6.900;2023-08-01T02:17:06;19.10;99.90
66568;DHT22;53422;49.296;6.900;2023-08-01T02:19:32;19.10;99.90
66568;DHT22;53422;49.296;6.900;2023-08-01T02:21:58;19.10;99.90
66568;DHT22;53422;49.296;6.900;2023-08-01T02:24:24;19.00;99.90
66568;DHT22;53422;49.296;6.900;2023-08-01T02:26:50;19.00;99.90
66568;DHT22;53422;49.296;6.900;2023-08-01T02:29:16;19.00;99.90
66568;DHT22;53422;49.296;6.900;2023-08-01T02:31:42;19.10;99.90
66568;DHT22;53422;49.296;6.900;2023-08-01T02:34:07;19.00;99.90
66568;DHT22;53422;49.296;6.900;2023-08-01T02:36:33;19.00;99.90
66568;DHT22;53422;49.296;6.900;2023-08-01T02:38:58;18.90;99.90
66568;DHT22;53422;49.296;6.900;2023-08-01T02:41:24;19.00;99.90
66568;DHT22;53422;49.296;6.900;2023-08-01T02:43:50;18.90;99.90
66568;DHT22;53422;49.296;6.900;2023-08-01T02:46:15;18.90;99.90
66568;DHT22;53422;49.296;6.900;2023-08-01T02:48:41;18.90;99.90
66568;DHT22;53422;49.296;6.900;2023-08-01T02:51:07;18.80;99.90
66568;DHT22;53422;49.296;6.900;2023-08-01T02:53:35;18.90;99.90
66568;DHT22;53422;49.296;6.900;2023-08-01T02:56:00;18.90;99.90
66568;DHT22;53422;49.296;6.900;2023-08-01T02:58:26;18.80;99.90
66568;DHT22;53422;49.296;6.900;2023-08-01T03:00:52;18.80;99.90
66568;DHT22;53422;49.296;6.900;2023-08-01T03:03:17;18.80;99.90
66568;DHT22;53422;49.296;6.900;2023-08-01T03:05:43;18.90;99.90
66568;DHT22;53422;49.296;6.900;2023-08-01T03:08:08;18.80;99.90
66568;DHT22;53422;49.296;6.900;2023-08-01T03:10:34;18.80;99.90
66568;DHT22;53422;49.296;6.900;2023-08-01T03:13:00;18.80;99.90
66568;DHT22;53422;49.296;6.900;2023-08-01T03:15:26;18.90;99.90
66568;DHT22;53422;49.296;6.900;2023-08-01T03:17:52;18.80;99.90
66568;DHT22;53422;49.296;6.900;2023-08-01T03:20:18;18.80;99.90
66568;DHT22;53422;49.296;6.900;2023-08-01T03:22:43;18.80;99.90
66568;DHT22;53422;49.296;6.900;2023-08-01T03:25:09;18.80;99.90
66568;DHT22;53422;49.296;6.900;2023-08-01T03:27:35;18.90;99.90
66568;DHT22;53422;49.296;6.900;2023-08-01T03:30:01;18.80;99.90
66568;DHT22;53422;49.296;6.900;2023-08-01T03:32:27;18.90;99.90
66568;DHT22;53422;49.296;6.900;2023-08-01T03:34:53;18.90;99.90
66568;DHT22;53422;49.296;6.900;2023-08-01T03:37:19;18.80;99.90
66568;DHT22;53422;49.296;6.900;2023-08-01T03:39:44;18.70;99.90
66568;DHT22;53422;49.296;6.900;2023-08-01T03:42:10;18.70;99.90
66568;DHT22;53422;49.296;6.900;2023-08-01T03:44:36;18.70;99.90
66568;DHT22;53422;49.296;6.900;2023-08-01T03:47:01;18.70;99.90
66568;DHT22;53422;49.296;6.900;2023-08-01T03:49:27;18.70;99.90
66568;DHT22;53422;49.296;6.900;2023-08-01T03:51:53;18.80;99.90
66568;DHT22;53422;49.296;6.900;2023-08-01T03:54:18;18.70;99.90
66568;DHT22;53422;49.296;6.900;2023-08-01T03:56:44;18.70;99.90
66568;DHT22;53422;49.296;6.900;2023-08-01T03:59:13;18.60;99.90
66568;DHT22;53422;49.296;6.900;2023-08-01T04:01:38;18.60;99.90
66568;DHT22;53422;49.296;6.900;2023-08-01T04:04:04;18.60;99.90
66568;DHT22;53422;49.296;6.900;2023-08-01T04:06:30;18.70;99.90
66568;DHT22;53422;49.296;6.900;2023-08-01T04:08:55;18.50;99.90
66568;DHT22;53422;49.296;6.900;2023-08-01T04:11:22;18.50;99.90
66568;DHT22;53422;49.296;6.900;2023-08-01T04:13:48;18.60;99.90
66568;DHT22;53422;49.296;6.900;2023-08-01T04:16:13;18.60;99.90
66568;DHT22;53422;49.296;6.900;2023-08-01T04:18:39;18.60;99.90
66568;DHT22;53422;49.296;6.900;2023-08-01T04:21:05;18.50;99.90
66568;DHT22;53422;49.296;6.900;2023-08-01T04:23:32;18.50;99.90
66568;DHT22;53422;49.296;6.900;2023-08-01T04:25:57;18.60;99.90
66568;DHT22;53422;49.296;6.900;2023-08-01T04:28:24;18.50;99.90
66568;DHT22;53422;49.296;6.900;2023-08-01T04:30:51;18.40;99.90
66568;DHT22;53422;49.296;6.900;2023-08-01T04:33:17;18.50;99.90
66568;DHT22;53422;49.296;6.900;2023-08-01T04:35:42;18.50;99.90
66568;DHT22;53422;49.296;6.900;2023-08-01T04:38:08;18.50;99.90
66568;DHT22;53422;49.296;6.900;2023-08-01T04:40:34;18.40;99.90
66568;DHT22;53422;49.296;6.900;2023-08-01T04:43:01;18.50;99.90
66568;DHT22;53422;49.296;6.900;2023-08-01T04:45:27;18.50;99.90
66568;DHT22;53422;49.296;6.900;2023-08-01T04:47:53;18.40;99.90
66568;DHT22;53422;49.296;6.900;2023-08-01T04:50:19;18.40;99.90
66568;DHT22;53422;49.296;6.900;2023-08-01T04:52:44;18.40;99.90
66568;DHT22;53422;49.296;6.900;2023-08-01T04:55:10;18.50;99.90
66568;DHT22;53422;49.296;6.900;2023-08-01T04:57:35;18.50;99.90
66568;DHT22;53422;49.296;6.900;2023-08-01T05:00:02;18.40;99.90
66568;DHT22;53422;49.296;6.900;2023-08-01T05:02:28;18.30;99.90
66568;DHT22;53422;49.296;6.900;2023-08-01T05:04:54;18.50;99.90
66568;DHT22;53422;49.296;6.900;2023-08-01T05:07:19;18.60;99.90
66568;DHT22;53422;49.296;6.900;2023-08-01T05:09:45;18.50;99.90
66568;DHT22;53422;49.296;6.900;2023-08-01T05:12:11;18.50;99.90
66568;DHT22;53422;49.296;6.900;2023-08-01T05:14:36;18.60;99.90
66568;DHT22;53422;49.296;6.900;2023-08-01T05:17:02;18.40;99.90
66568;DHT22;53422;49.296;6.900;2023-08-01T05:19:28;18.50;99.90
66568;DHT22;53422;49.296;6.900;2023-08-01T05:21:53;18.60;99.90
66568;DHT22;53422;49.296;6.900;2023-08-01T05:24:20;18.40;99.90
66568;DHT22;53422;49.296;6.900;2023-08-01T05:26:46;18.30;99.90
66568;DHT22;53422;49.296;6.900;2023-08-01T05:29:12;18.40;99.90
66568;DHT22;53422;49.296;6.900;2023-08-01T05:31:38;18.50;99.90
66568;DHT22;53422;49.296;6.900;2023-08-01T05:34:03;18.50;99.90
66568;DHT22;53422;49.296;6.900;2023-08-01T05:36:29;18.40;99.90
66568;DHT22;53422;49.296;6.900;2023-08-01T05:38:54;18.30;99.90
66568;DHT22;53422;49.296;6.900;2023-08-01T05:41:20;18.30;99.90
66568;DHT22;53422;49.296;6.900;2023-08-01T05:43:48;18.40;99.90
66568;DHT22;53422;49.296;6.900;2023-08-01T05:46:13;18.30;99.90
66568;DHT22;53422;49.296;6.900;2023-08-01T05:48:39;18.50;99.90
66568;DHT22;53422;49.296;6.900;2023-08-01T05:51:05;18.50;99.90
66568;DHT22;53422;49.296;6.900;2023-08-01T05:53:30;18.50;99.90
66568;DHT22;53422;49.296;6.900;2023-08-01T05:55:56;18.60;99.90
66568;DHT22;53422;49.296;6.900;2023-08-01T05:58:22;18.50;99.90
66568;DHT22;53422;49.296;6.900;2023-08-01T06:00:48;18.50;99.90
66568;DHT22;53422;49.296;6.900;2023-08-01T06:03:13;18.50;99.90
66568;DHT22;53422;49.296;6.900;2023-08-01T06:05:39;18.60;99.90
66568;DHT22;53422;49.296;6.900;2023-08-01T06:08:08;18.60;99.90
66568;DHT22;53422;49.296;6.900;2023-08-01T06:10:37;18.60;99.90
66568;DHT22;53422;49.296;6.900;2023-08-01T06:13:03;18.60;99.90
66568;DHT22;53422;49.296;6.900;2023-08-01T06:15:28;18.60;99.90
66568;DHT22;53422;49.296;6.900;2023-08-01T06:17:55;18.60;99.90
66568;DHT22;53422;49.296;6.900;2023-08-01T06:20:21;18.70;99.90
66568;DHT22;53422;49.296;6.900;2023-08-01T06:22:46;18.70;99.90
66568;DHT22;53422;49.296;6.900;2023-08-01T06:25:12;18.70;99.90
66568;DHT22;53422;49.296;6.900;2023-08-01T06:27:38;18.70;99.90
66568;DHT22;53422;49.296;6.900;2023-08-01T06:30:04;18.70;99.90
66568;DHT22;53422;49.296;6.900;2023-08-01T06:32:30;18.60;99.90
66568;DHT22;53422;49.296;6.900;2023-08-01T06:34:56;18.60;99.90
66568;DHT22;53422;49.296;6.900;2023-08-01T06:37:23;18.50;99.90
66568;DHT22;53422;49.296;6.900;2023-08-01T06:39:49;18.60;99.90
66568;DHT22;53422;49.296;6.900;2023-08-01T06:42:15;18.60;99.90
66568;DHT22;53422;49.296;6.900;2023-08-01T06:44:41;18.70;99.90
66568;DHT22;53422;49.296;6.900;2023-08-01T06:47:07;18.70;99.90
66568;DHT22;53422;49.296;6.900;2023-08-01T06:49:33;18.60;99.90
66568;DHT22;53422;49.296;6.900;2023-08-01T06:51:58;18.70;99.90
66568;DHT22;53422;49.296;6.900;2023-08-01T06:54:24;18.70;99.90
66568;DHT22;53422;49.296;6.900;2023-08-01T06:56:50;18.80;99.90
66568;DHT22;53422;49.296;6.900;2023-08-01T06:59:16;18.80;99.90
66568;DHT22;53422;49.296;6.900;2023-08-01T07:01:42;18.80;99.90
66568;DHT22;53422;49.296;6.900;2023-08-01T07:04:12;18.80;99.90
66568;DHT22;53422;49.296;6.900;2023-08-01T07:06:39;18.90;99.90
66568;DHT22;53422;49.296;6.900;2023-08-01T07:09:05;19.00;99.90
66568;DHT22;53422;49.296;6.900;2023-08-01T07:11:31;19.00;99.90
66568;DHT22;53422;49.296;6.900;2023-08-01T07:13:56;19.00;99.90
66568;DHT22;53422;49.296;6.900;2023-08-01T07:16:22;19.00;99.90
66568;DHT22;53422;49.296;6.900;2023-08-01T07:18:48;19.00;99.90
66568;DHT22;53422;49.296;6.900;2023-08-01T07:21:14;19.10;99.90
66568;DHT22;53422;49.296;6.900;2023-08-01T07:23:40;19.10;99.90
66568;DHT22;53422;49.296;6.900;2023-08-01T07:26:06;19.00;99.90
66568;DHT22;53422;49.296;6.900;2023-08-01T07:28:32;19.10;99.90
66568;DHT22;53422;49.296;6.900;2023-08-01T07:31:07;19.20;99.90
66568;DHT22;53422;49.296;6.900;2023-08-01T07:33:34;19.30;99.90
66568;DHT22;53422;49.296;6.900;2023-08-01T07:36:00;19.30;99.90
66568;DHT22;53422;49.296;6.900;2023-08-01T07:38:25;19.30;99.90
66568;DHT22;53422;49.296;6.900;2023-08-01T07:40:54;19.30;99.90
66568;DHT22;53422;49.296;6.900;2023-08-01T07:43:20;19.40;99.90
66568;DHT22;53422;49.296;6.900;2023-08-01T07:45:46;19.50;99.90
66568;DHT22;53422;49.296;6.900;2023-08-01T07:48:12;19.50;99.90
66568;DHT22;53422;49.296;6.900;2023-08-01T07:50:37;19.50;99.90
66568;DHT22;53422;49.296;6.900;2023-08-01T07:53:03;19.60;99.90
66568;DHT22;53422;49.296;6.900;2023-08-01T07:55:29;19.70;99.90
66568;DHT22;53422;49.296;6.900;2023-08-01T07:57:58;19.70;99.90
66568;DHT22;53422;49.296;6.900;2023-08-01T08:00:23;19.80;99.90
66568;DHT22;53422;49.296;6.900;2023-08-01T08:02:49;19.80;99.90
66568;DHT22;53422;49.296;6.900;2023-08-01T08:05:15;19.90;99.90
66568;DHT22;53422;49.296;6.900;2023-08-01T08:07:40;20.00;99.90
66568;DHT22;53422;49.296;6.900;2023-08-01T08:10:06;20.00;99.90
66568;DHT22;53422;49.296;6.900;2023-08-01T08:12:32;20.00;99.90
66568;DHT22;53422;49.296;6.900;2023-08-01T08:14:58;20.10;99.90
66568;DHT22;53422;49.296;6.900;2023-08-01T08:17:24;20.30;99.90
66568;DHT22;53422;49.296;6.900;2023-08-01T08:19:49;20.40;99.90
66568;DHT22;53422;49.296;6.900;2023-08-01T08:22:15;20.50;99.90
66568;DHT22;53422;49.296;6.900;2023-08-01T08:24:40;20.50;99.90
66568;DHT22;53422;49.296;6.900;2023-08-01T08:27:06;20.60;99.90
66568;DHT22;53422;49.296;6.900;2023-08-01T08:29:32;20.80;99.90
66568;DHT22;53422;49.296;6.900;2023-08-01T08:31:58;20.80;99.90
66568;DHT22;53422;49.296;6.900;2023-08-01T08:34:24;20.90;99.90
66568;DHT22;53422;49.296;6.900;2023-08-01T08:36:50;20.90;99.90
66568;DHT22;53422;49.296;6.900;2023-08-01T08:39:16;21.00;99.90
66568;DHT22;53422;49.296;6.900;2023-08-01T08:41:51;21.10;99.90
66568;DHT22;53422;49.296;6.900;2023-08-01T08:44:19;21.20;99.90
66568;DHT22;53422;49.296;6.900;2023-08-01T08:46:53;21.30;99.90
66568;DHT22;53422;49.296;6.900;2023-08-01T08:49:22;21.40;99.90
66568;DHT22;53422;49.296;6.900;2023-08-01T08:51:49;21.50;99.90
66568;DHT22;53422;49.296;6.900;2023-08-01T08:54:16;21.60;99.90
66568;DHT22;53422;49.296;6.900;2023-08-01T08:56:42;21.60;99.90
66568;DHT22;53422;49.296;6.900;2023-08-01T08:59:08;21.70;99.90
66568;DHT22;53422;49.296;6.900;2023-08-01T09:01:38;21.80;99.90
66568;DHT22;53422;49.296;6.900;2023-08-01T09:04:04;21.80;99.90
66568;DHT22;53422;49.296;6.900;2023-08-01T09:06:45;22.00;99.90
66568;DHT22;53422;49.296;6.900;2023-08-01T09:09:13;22.10;99.90
66568;DHT22;53422;49.296;6.900;2023-08-01T09:11:50;22.30;99.90
66568;DHT22;53422;49.296;6.900;2023-08-01T09:14:16;22.40;99.90
66568;DHT22;53422;49.296;6.900;2023-08-01T09:16:43;22.60;99.90
66568;DHT22;53422;49.296;6.900;2023-08-01T09:19:09;22.60;99.90
66568;DHT22;53422;49.296;6.900;2023-08-01T09:21:36;22.70;99.90
66568;DHT22;53422;49.296;6.900;2023-08-01T09:24:11;22.80;99.90
66568;DHT22;53422;49.296;6.900;2023-08-01T09:26:38;22.80;99.90
66568;DHT22;53422;49.296;6.900;2023-08-01T09:29:03;22.90;99.90
66568;DHT22;53422;49.296;6.900;2023-08-01T09:31:33;22.90;99.90
66568;DHT22;53422;49.296;6.900;2023-08-01T09:34:03;23.00;99.50
66568;DHT22;53422;49.296;6.900;2023-08-01T09:36:31;23.00;99.90
66568;DHT22;53422;49.296;6.900;2023-08-01T09:39:02;22.90;98.70
66568;DHT22;53422;49.296;6.900;2023-08-01T09:41:31;22.90;99.90
66568;DHT22;53422;49.296;6.900;2023-08-01T09:43:57;22.90;99.10
66568;DHT22;53422;49.296;6.900;2023-08-01T09:46:24;22.90;97.70
66568;DHT22;53422;49.296;6.900;2023-08-01T09:48:50;22.80;97.60
66568;DHT22;53422;49.296;6.900;2023-08-01T09:51:17;22.80;96.70
66568;DHT22;53422;49.296;6.900;2023-08-01T09:53:51;22.80;97.90
66568;DHT22;53422;49.296;6.900;2023-08-01T09:56:24;22.80;98.60
66568;DHT22;53422;49.296;6.900;2023-08-01T09:58:52;22.80;96.10
66568;DHT22;53422;49.296;6.900;2023-08-01T10:01:20;22.80;97.00
66568;DHT22;53422;49.296;6.900;2023-08-01T10:03:47;22.70;95.70
66568;DHT22;53422;49.296;6.900;2023-08-01T10:06:14;22.70;95.70
66568;DHT22;53422;49.296;6.900;2023-08-01T10:08:42;22.60;94.00
66568;DHT22;53422;49.296;6.900;2023-08-01T10:11:08;22.60;95.20
66568;DHT22;53422;49.296;6.900;2023-08-01T10:13:34;22.60;96.60
66568;DHT22;53422;49.296;6.900;2023-08-01T10:16:00;22.70;95.10
66568;DHT22;53422;49.296;6.900;2023-08-01T10:18:28;22.60;93.70
66568;DHT22;53422;49.296;6.900;2023-08-01T10:20:55;22.60;95.60
66568;DHT22;53422;49.296;6.900;2023-08-01T10:23:21;22.70;94.60
66568;DHT22;53422;49.296;6.900;2023-08-01T10:25:47;22.70;93.80
66568;DHT22;53422;49.296;6.900;2023-08-01T10:28:13;22.70;92.00
66568;DHT22;53422;49.296;6.900;2023-08-01T10:30:38;22.60;93.90
66568;DHT22;53422;49.296;6.900;2023-08-01T10:33:04;22.60;94.40
66568;DHT22;53422;49.296;6.900;2023-08-01T10:35:37;22.70;93.10
66568;DHT22;53422;49.296;6.900;2023-08-01T10:38:11;22.60;94.90
66568;DHT22;53422;49.296;6.900;2023-08-01T10:40:37;22.50;94.10
66568;DHT22;53422;49.296;6.900;2023-08-01T10:43:04;22.60;93.60
66568;DHT22;53422;49.296;6.900;2023-08-01T10:45:30;22.60;94.80
66568;DHT22;53422;49.296;6.900;2023-08-01T10:48:07;22.70;92.60
66568;DHT22;53422;49.296;6.900;2023-08-01T10:50:33;22.60;93.40
66568;DHT22;53422;49.296;6.900;2023-08-01T10:55:06;22.70;92.80
66568;DHT22;53422;49.296;6.900;2023-08-01T10:57:34;22.50;88.30
66568;DHT22;53422;49.296;6.900;2023-08-01T11:00:00;22.50;91.80
66568;DHT22;53422;49.296;6.900;2023-08-01T11:02:27;22.60;93.00
66568;DHT22;53422;49.296;6.900;2023-08-01T11:05:02;22.30;86.80
66568;DHT22;53422;49.296;6.900;2023-08-01T11:07:28;21.90;90.10
66568;DHT22;53422;49.296;6.900;2023-08-01T11:10:11;22.00;91.40
66568;DHT22;53422;49.296;6.900;2023-08-01T11:12:38;22.40;91.30
66568;DHT22;53422;49.296;6.900;2023-08-01T11:15:05;22.60;90.70
66568;DHT22;53422;49.296;6.900;2023-08-01T11:17:31;22.80;89.20
66568;DHT22;53422;49.296;6.900;2023-08-01T11:20:03;22.80;89.80
66568;DHT22;53422;49.296;6.900;2023-08-01T11:22:30;22.90;89.60
66568;DHT22;53422;49.296;6.900;2023-08-01T11:24:55;22.90;90.00
66568;DHT22;53422;49.296;6.900;2023-08-01T11:27:21;22.90;88.80
66568;DHT22;53422;49.296;6.900;2023-08-01T11:29:47;22.90;87.30
66568;DHT22;53422;49.296;6.900;2023-08-01T11:32:13;23.00;90.10
66568;DHT22;53422;49.296;6.900;2023-08-01T11:34:42;23.00;90.60
66568;DHT22;53422;49.296;6.900;2023-08-01T11:37:10;23.10;89.80
66568;DHT22;53422;49.296;6.900;2023-08-01T11:39:37;23.10;92.10
66568;DHT22;53422;49.296;6.900;2023-08-01T11:42:03;23.20;86.90
66568;DHT22;53422;49.296;6.900;2023-08-01T11:44:29;23.30;90.80
66568;DHT22;53422;49.296;6.900;2023-08-01T11:46:55;23.40;87.20
66568;DHT22;53422;49.296;6.900;2023-08-01T11:49:21;23.50;90.00
66568;DHT22;53422;49.296;6.900;2023-08-01T11:51:47;23.50;90.20
66568;DHT22;53422;49.296;6.900;2023-08-01T11:54:14;23.60;88.00
66568;DHT22;53422;49.296;6.900;2023-08-01T11:56:40;23.70;89.00
66568;DHT22;53422;49.296;6.900;2023-08-01T11:59:12;23.80;84.80
66568;DHT22;53422;49.296;6.900;2023-08-01T12:01:39;23.90;84.90
66568;DHT22;53422;49.296;6.900;2023-08-01T12:04:05;24.00;82.60
66568;DHT22;53422;49.296;6.900;2023-08-01T12:06:32;24.00;79.70
66568;DHT22;53422;49.296;6.900;2023-08-01T12:09:09;24.00;76.30
66568;DHT22;53422;49.296;6.900;2023-08-01T12:11:35;24.00;78.30
66568;DHT22;53422;49.296;6.900;2023-08-01T12:16:38;24.00;82.20
66568;DHT22;53422;49.296;6.900;2023-08-01T12:19:04;24.00;80.80
66568;DHT22;53422;49.296;6.900;2023-08-01T12:21:32;24.00;79.70
66568;DHT22;53422;49.296;6.900;2023-08-01T12:23:58;23.90;79.00
66568;DHT22;53422;49.296;6.900;2023-08-01T12:26:25;23.90;81.70
66568;DHT22;53422;49.296;6.900;2023-08-01T12:28:50;23.90;78.30
66568;DHT22;53422;49.296;6.900;2023-08-01T12:31:20;23.90;78.70
66568;DHT22;53422;49.296;6.900;2023-08-01T12:33:47;24.00;82.90
66568;DHT22;53422;49.296;6.900;2023-08-01T12:36:14;23.80;77.40
66568;DHT22;53422;49.296;6.900;2023-08-01T12:38:41;23.50;76.70
66568;DHT22;53422;49.296;6.900;2023-08-01T12:41:07;23.50;76.30
66568;DHT22;53422;49.296;6.900;2023-08-01T12:43:33;23.70;76.00
66568;DHT22;53422;49.296;6.900;2023-08-01T12:45:58;23.80;76.10
66568;DHT22;53422;49.296;6.900;2023-08-01T12:48:28;23.80;73.00
66568;DHT22;53422;49.296;6.900;2023-08-01T12:50:54;23.20;72.00
66568;DHT22;53422;49.296;6.900;2023-08-01T12:53:23;23.10;73.20
66568;DHT22;53422;49.296;6.900;2023-08-01T12:55:50;23.50;73.40
66568;DHT22;53422;49.296;6.900;2023-08-01T12:58:16;23.70;74.20
66568;DHT22;53422;49.296;6.900;2023-08-01T13:00:43;23.90;73.50
66568;DHT22;53422;49.296;6.900;2023-08-01T13:03:10;24.00;71.40
66568;DHT22;53422;49.296;6.900;2023-08-01T13:05:37;24.10;72.40
66568;DHT22;53422;49.296;6.900;2023-08-01T13:08:03;24.10;71.70
66568;DHT22;53422;49.296;6.900;2023-08-01T13:10:33;24.20;72.40
66568;DHT22;53422;49.296;6.900;2023-08-01T13:12:59;24.30;75.10
66568;DHT22;53422;49.296;6.900;2023-08-01T13:15:25;24.40;71.70
66568;DHT22;53422;49.296;6.900;2023-08-01T13:17:51;24.40;69.70
66568;DHT22;53422;49.296;6.900;2023-08-01T13:20:17;24.40;69.40
66568;DHT22;53422;49.296;6.900;2023-08-01T13:22:45;24.50;67.70
66568;DHT22;53422;49.296;6.900;2023-08-01T13:25:10;24.50;70.90
66568;DHT22;53422;49.296;6.900;2023-08-01T13:27:36;24.60;70.20
66568;DHT22;53422;49.296;6.900;2023-08-01T13:30:03;24.60;67.50
66568;DHT22;53422;49.296;6.900;2023-08-01T13:32:28;24.70;67.60
66568;DHT22;53422;49.296;6.900;2023-08-01T13:34:54;24.70;68.90
66568;DHT22;53422;49.296;6.900;2023-08-01T13:37:19;24.70;67.20
66568;DHT22;53422;49.296;6.900;2023-08-01T13:39:45;24.80;66.70
66568;DHT22;53422;49.296;6.900;2023-08-01T13:42:12;24.80;67.20
66568;DHT22;53422;49.296;6.900;2023-08-01T13:44:38;24.80;64.30
66568;DHT22;53422;49.296;6.900;2023-08-01T13:47:03;24.80;67.10
66568;DHT22;53422;49.296;6.900;2023-08-01T13:49:29;24.90;62.70
66568;DHT22;53422;49.296;6.900;2023-08-01T13:51:55;24.90;64.40
66568;DHT22;53422;49.296;6.900;2023-08-01T13:54:21;25.00;62.90
66568;DHT22;53422;49.296;6.900;2023-08-01T13:56:47;25.10;64.30
66568;DHT22;53422;49.296;6.900;2023-08-01T13:59:13;25.10;63.50
66568;DHT22;53422;49.296;6.900;2023-08-01T14:01:39;25.20;65.20
66568;DHT22;53422;49.296;6.900;2023-08-01T14:04:05;25.20;63.50
66568;DHT22;53422;49.296;6.900;2023-08-01T14:06:30;25.20;62.70
66568;DHT22;53422;49.296;6.900;2023-08-01T14:08:56;25.20;66.70
66568;DHT22;53422;49.296;6.900;2023-08-01T14:11:22;25.30;65.20
66568;DHT22;53422;49.296;6.900;2023-08-01T14:13:49;25.30;63.40
66568;DHT22;53422;49.296;6.900;2023-08-01T14:16:14;25.30;62.30
66568;DHT22;53422;49.296;6.900;2023-08-01T14:18:42;25.30;61.00
66568;DHT22;53422;49.296;6.900;2023-08-01T14:21:08;25.30;61.90
66568;DHT22;53422;49.296;6.900;2023-08-01T14:23:34;25.30;62.00
66568;DHT22;53422;49.296;6.900;2023-08-01T14:25:59;25.20;60.80
66568;DHT22;53422;49.296;6.900;2023-08-01T14:28:25;25.20;60.10
66568;DHT22;53422;49.296;6.900;2023-08-01T14:30:51;25.30;60.80
66568;DHT22;53422;49.296;6.900;2023-08-01T14:33:16;25.30;60.70
66568;DHT22;53422;49.296;6.900;2023-08-01T14:35:42;25.20;60.90
66568;DHT22;53422;49.296;6.900;2023-08-01T14:38:08;25.20;60.30
66568;DHT22;53422;49.296;6.900;2023-08-01T14:40:34;25.20;60.90
66568;DHT22;53422;49.296;6.900;2023-08-01T14:43:01;25.20;60.70
66568;DHT22;53422;49.296;6.900;2023-08-01T14:45:27;25.20;60.70
66568;DHT22;53422;49.296;6.900;2023-08-01T14:47:53;25.20;61.20
66568;DHT22;53422;49.296;6.900;2023-08-01T14:50:19;25.20;62.50
66568;DHT22;53422;49.296;6.900;2023-08-01T14:52:44;25.20;64.40
66568;DHT22;53422;49.296;6.900;2023-08-01T14:55:10;25.10;62.20
66568;DHT22;53422;49.296;6.900;2023-08-01T14:57:36;25.10;61.30
66568;DHT22;53422;49.296;6.900;2023-08-01T15:00:02;25.00;61.80
66568;DHT22;53422;49.296;6.900;2023-08-01T15:02:29;25.00;60.70
66568;DHT22;53422;49.296;6.900;2023-08-01T15:04:56;24.90;62.30
66568;DHT22;53422;49.296;6.900;2023-08-01T15:07:25;24.90;62.50
66568;DHT22;53422;49.296;6.900;2023-08-01T15:09:51;24.80;62.60
66568;DHT22;53422;49.296;6.900;2023-08-01T15:12:20;24.80;60.70
66568;DHT22;53422;49.296;6.900;2023-08-01T15:14:53;24.80;62.20
66568;DHT22;53422;49.296;6.900;2023-08-01T15:17:19;24.80;62.80
66568;DHT22;53422;49.296;6.900;2023-08-01T15:19:45;24.70;61.30
66568;DHT22;53422;49.296;6.900;2023-08-01T15:22:15;24.60;61.60
66568;DHT22;53422;49.296;6.900;2023-08-01T15:24:41;24.60;62.60
66568;DHT22;53422;49.296;6.900;2023-08-01T15:27:07;24.60;61.90
66568;DHT22;53422;49.296;6.900;2023-08-01T15:29:33;24.50;62.60
66568;DHT22;53422;49.296;6.900;2023-08-01T15:31:58;24.40;62.60